sensor_id;sensor_type;location;lat;lon;timestamp;pressure;altitude;pressure_sealevel;temperature;humidity
47883;BME280;37739;50.350;7.578;2023-04-15T00:00:00;98864.53;;;8.49;53.85
47883;BME280;37739;50.350;7.578;2023-04-15T00:02:26;98867.81;;;8.43;53.82
47883;BME280;37739;50.350;7.578;2023-04-15T00:04:51;98865.25;;;8.43;53.96
47883;BME280;37739;50.350;7.578;2023-04-15T00:07:19;98857.34;;;8.37;54.22
47883;BME280;37739;50.350;7.578;2023-04-15T00:09:44;98864.81;;;8.31;54.69
47883;BME280;37739;50.350;7.578;2023-04-15T00:12:12;98872.50;;;8.31;54.62
47883;BME280;37739;50.350;7.578;2023-04-15T00:14:40;98862.81;;;8.20;55.65
47883;BME280;37739;50.350;7.578;2023-04-15T00:17:05;98866.72;;;8.09;55.37
47883;BME280;37739;50.350;7.578;2023-04-15T00:19:33;98862.16;;;8.00;56.14
47883;BME280;37739;50.350;7.578;2023-04-15T00:21:59;98862.16;;;8.00;55.70
47883;BME280;37739;50.350;7.578;2023-04-15T00:24:24;98858.88;;;8.03;55.60
47883;BME280;37739;50.350;7.578;2023-04-15T00:26:53;98859.84;;;8.06;55.72
47883;BME280;37739;50.350;7.578;2023-04-15T00:29:18;98860.38;;;7.98;56.06
47883;BME280;37739;50.350;7.578;2023-04-15T00:31:44;98856.31;;;8.03;55.56
47883;BME280;37739;50.350;7.578;2023-04-15T00:34:09;98861.50;;;8.06;55.55
47883;BME280;37739;50.350;7.578;2023-04-15T00:36:34;98859.91;;;8.10;55.62
47883;BME280;37739;50.350;7.578;2023-04-15T00:39:00;98858.09;;;8.05;55.16
47883;BME280;37739;50.350;7.578;2023-04-15T00:41:27;98847.75;;;8.02;55.64
47883;BME280;37739;50.350;7.578;2023-04-15T00:43:52;98853.34;;;7.91;56.23
47883;BME280;37739;50.350;7.578;2023-04-15T00:46:18;98853.63;;;7.73;56.96
47883;BME280;37739;50.350;7.578;2023-04-15T00:48:49;98856.84;;;7.67;56.98
47883;BME280;37739;50.350;7.578;2023-04-15T00:51:15;98859.25;;;7.62;57.48
47883;BME280;37739;50.350;7.578;2023-04-15T00:53:40;98855.66;;;7.57;57.16
47883;BME280;37739;50.350;7.578;2023-04-15T00:56:06;98861.53;;;7.55;57.73
47883;BME280;37739;50.350;7.578;2023-04-15T00:58:31;98860.56;;;7.51;57.37
47883;BME280;37739;50.350;7.578;2023-04-15T01:00:57;98861.28;;;7.47;57.92
47883;BME280;37739;50.350;7.578;2023-04-15T01:03:23;98871.25;;;7.41;58.65
47883;BME280;37739;50.350;7.578;2023-04-15T01:05:49;98871.16;;;7.38;58.79
47883;BME280;37739;50.350;7.578;2023-04-15T01:08:15;98870.91;;;7.30;59.44
47883;BME280;37739;50.350;7.578;2023-04-15T01:10:40;98864.00;;;7.27;59.31
47883;BME280;37739;50.350;7.578;2023-04-15T01:13:06;98866.44;;;7.24;59.53
47883;BME280;37739;50.350;7.578;2023-04-15T01:15:31;98869.78;;;7.23;59.94
47883;BME280;37739;50.350;7.578;2023-04-15T01:17:59;98858.09;;;7.28;59.10
47883;BME280;37739;50.350;7.578;2023-04-15T01:20:25;98857.97;;;7.25;60.51
47883;BME280;37739;50.350;7.578;2023-04-15T01:22:50;98863.06;;;7.25;59.52
47883;BME280;37739;50.350;7.578;2023-04-15T01:25:19;98858.63;;;7.20;60.00
47883;BME280;37739;50.350;7.578;2023-04-15T01:27:46;98857.81;;;7.21;59.25
47883;BME280;37739;50.350;7.578;2023-04-15T01:30:15;98858.63;;;7.20;59.66
47883;BME280;37739;50.350;7.578;2023-04-15T01:32:43;98854.94;;;7.12;59.08
47883;BME280;37739;50.350;7.578;2023-04-15T01:35:08;98861.72;;;7.11;60.08
47883;BME280;37739;50.350;7.578;2023-04-15T01:37:36;98863.47;;;7.12;59.16
47883;BME280;37739;50.350;7.578;2023-04-15T01:40:04;98865.91;;;7.09;60.39
47883;BME280;37739;50.350;7.578;2023-04-15T01:42:30;98872.41;;;7.01;60.06
47883;BME280;37739;50.350;7.578;2023-04-15T01:44:55;98866.75;;;6.85;61.45
47883;BME280;37739;50.350;7.578;2023-04-15T01:47:21;98856.44;;;6.82;60.86
47883;BME280;37739;50.350;7.578;2023-04-15T01:49:46;98857.06;;;6.77;60.88
47883;BME280;37739;50.350;7.578;2023-04-15T01:52:13;98852.97;;;6.80;60.62
47883;BME280;37739;50.350;7.578;2023-04-15T01:54:41;98861.41;;;6.79;60.02
47883;BME280;37739;50.350;7.578;2023-04-15T01:57:06;98859.91;;;6.84;60.36
47883;BME280;37739;50.350;7.578;2023-04-15T01:59:34;98855.56;;;6.82;61.36
47883;BME280;37739;50.350;7.578;2023-04-15T02:02:00;98852.63;;;6.71;61.30
47883;BME280;37739;50.350;7.578;2023-04-15T02:04:25;98856.72;;;6.67;61.44
47883;BME280;37739;50.350;7.578;2023-04-15T02:06:54;98854.78;;;6.60;62.23
47883;BME280;37739;50.350;7.578;2023-04-15T02:09:19;98855.44;;;6.55;62.28
47883;BME280;37739;50.350;7.578;2023-04-15T02:11:47;98854.25;;;6.46;62.53
47883;BME280;37739;50.350;7.578;2023-04-15T02:14:14;98860.97;;;6.44;63.29
47883;BME280;37739;50.350;7.578;2023-04-15T02:16:42;98859.00;;;6.37;63.25
47883;BME280;37739;50.350;7.578;2023-04-15T02:19:10;98862.34;;;6.36;63.57
47883;BME280;37739;50.350;7.578;2023-04-15T02:21:35;98858.88;;;6.34;63.38
47883;BME280;37739;50.350;7.578;2023-04-15T02:24:00;98866.66;;;6.37;63.62
47883;BME280;37739;50.350;7.578;2023-04-15T02:26:26;98866.75;;;6.40;62.79
47883;BME280;37739;50.350;7.578;2023-04-15T02:28:52;98869.19;;;6.37;63.29
47883;BME280;37739;50.350;7.578;2023-04-15T02:31:19;98859.94;;;6.39;62.44
47883;BME280;37739;50.350;7.578;2023-04-15T02:33:45;98864.09;;;6.37;62.32
47883;BME280;37739;50.350;7.578;2023-04-15T02:36:11;98869.75;;;6.30;62.86
47883;BME280;37739;50.350;7.578;2023-04-15T02:38:36;98861.00;;;6.23;63.82
47883;BME280;37739;50.350;7.578;2023-04-15T02:41:04;98874.56;;;6.22;63.30
47883;BME280;37739;50.350;7.578;2023-04-15T02:43:29;98872.06;;;6.24;63.54
47883;BME280;37739;50.350;7.578;2023-04-15T02:45:57;98877.16;;;6.24;63.47
47883;BME280;37739;50.350;7.578;2023-04-15T02:48:28;98876.09;;;6.19;63.73
47883;BME280;37739;50.350;7.578;2023-04-15T02:50:53;98873.41;;;6.14;63.95
47883;BME280;37739;50.350;7.578;2023-04-15T02:53:34;98875.88;;;6.13;63.88
47883;BME280;37739;50.350;7.578;2023-04-15T02:56:00;98882.69;;;6.14;63.45
47883;BME280;37739;50.350;7.578;2023-04-15T02:58:25;98876.66;;;6.12;63.67
47883;BME280;37739;50.350;7.578;2023-04-15T03:00:51;98882.69;;;6.14;63.08
47883;BME280;37739;50.350;7.578;2023-04-15T03:03:16;98875.94;;;6.14;62.87
47883;BME280;37739;50.350;7.578;2023-04-15T03:05:43;98875.50;;;6.03;63.16
47883;BME280;37739;50.350;7.578;2023-04-15T03:08:09;98874.03;;;6.08;63.21
47883;BME280;37739;50.350;7.578;2023-04-15T03:10:34;98881.53;;;6.05;62.95
47883;BME280;37739;50.350;7.578;2023-04-15T03:13:00;98875.31;;;5.99;63.59
47883;BME280;37739;50.350;7.578;2023-04-15T03:15:25;98882.06;;;5.98;63.68
47883;BME280;37739;50.350;7.578;2023-04-15T03:17:51;98880.41;;;5.99;64.05
47883;BME280;37739;50.350;7.578;2023-04-15T03:20:16;98878.84;;;6.02;64.09
47883;BME280;37739;50.350;7.578;2023-04-15T03:22:41;98883.91;;;6.01;64.33
47883;BME280;37739;50.350;7.578;2023-04-15T03:25:07;98882.84;;;5.96;64.66
47883;BME280;37739;50.350;7.578;2023-04-15T03:27:36;98883.59;;;5.95;65.25
47883;BME280;37739;50.350;7.578;2023-04-15T03:30:04;98883.69;;;5.96;65.13
47883;BME280;37739;50.350;7.578;2023-04-15T03:32:30;98881.88;;;5.94;64.98
47883;BME280;37739;50.350;7.578;2023-04-15T03:35:00;98882.06;;;5.98;64.33
47883;BME280;37739;50.350;7.578;2023-04-15T03:37:26;98879.50;;;5.97;64.60
47883;BME280;37739;50.350;7.578;2023-04-15T03:39:53;98884.50;;;5.95;64.96
47883;BME280;37739;50.350;7.578;2023-04-15T03:42:18;98882.72;;;5.94;64.76
47883;BME280;37739;50.350;7.578;2023-04-15T03:44:44;98885.16;;;5.91;65.53
47883;BME280;37739;50.350;7.578;2023-04-15T03:47:09;98883.34;;;5.88;64.70
47883;BME280;37739;50.350;7.578;2023-04-15T03:49:35;98880.69;;;5.85;65.07
47883;BME280;37739;50.350;7.578;2023-04-15T03:52:01;98883.78;;;5.78;65.36
47883;BME280;37739;50.350;7.578;2023-04-15T03:54:28;98879.31;;;5.73;65.11
47883;BME280;37739;50.350;7.578;2023-04-15T03:56:54;98883.53;;;5.72;64.72
47883;BME280;37739;50.350;7.578;2023-04-15T03:59:20;98887.63;;;5.68;64.84
47883;BME280;37739;50.350;7.578;2023-04-15T04:01:45;98896.06;;;5.67;65.12
47883;BME280;37739;50.350;7.578;2023-04-15T04:04:10;98898.25;;;5.58;66.04
47883;BME280;37739;50.350;7.578;2023-04-15T04:06:36;98899.88;;;5.58;65.01
47883;BME280;37739;50.350;7.578;2023-04-15T04:09:03;98893.78;;;5.54;65.72
47883;BME280;37739;50.350;7.578;2023-04-15T04:11:29;98892.00;;;5.51;65.18
47883;BME280;37739;50.350;7.578;2023-04-15T04:13:54;98899.63;;;5.51;65.35
47883;BME280;37739;50.350;7.578;2023-04-15T04:16:24;98893.47;;;5.46;65.48
47883;BME280;37739;50.350;7.578;2023-04-15T04:18:49;98897.59;;;5.43;65.65
47883;BME280;37739;50.350;7.578;2023-04-15T04:21:15;98900.13;;;5.43;66.04
47883;BME280;37739;50.350;7.578;2023-04-15T04:23:41;98902.53;;;5.40;66.39
47883;BME280;37739;50.350;7.578;2023-04-15T04:26:08;98909.47;;;5.44;65.95
47883;BME280;37739;50.350;7.578;2023-04-15T04:28:33;98915.19;;;5.38;65.97
47883;BME280;37739;50.350;7.578;2023-04-15T04:31:00;98905.69;;;5.34;66.73
47883;BME280;37739;50.350;7.578;2023-04-15T04:33:25;98908.91;;;5.30;65.93
47883;BME280;37739;50.350;7.578;2023-04-15T04:35:53;98908.06;;;5.31;66.18
47883;BME280;37739;50.350;7.578;2023-04-15T04:38:21;98907.34;;;5.34;66.49
47883;BME280;37739;50.350;7.578;2023-04-15T04:40:48;98905.59;;;5.32;66.05
47883;BME280;37739;50.350;7.578;2023-04-15T04:43:16;98912.28;;;5.30;66.01
47883;BME280;37739;50.350;7.578;2023-04-15T04:45:41;98907.09;;;5.27;66.76
47883;BME280;37739;50.350;7.578;2023-04-15T04:48:11;98908.63;;;5.24;66.46
47883;BME280;37739;50.350;7.578;2023-04-15T04:50:39;98904.34;;;5.23;66.99
47883;BME280;37739;50.350;7.578;2023-04-15T04:53:07;98913.66;;;5.22;66.82
47883;BME280;37739;50.350;7.578;2023-04-15T04:55:34;98913.50;;;5.19;67.01
47883;BME280;37739;50.350;7.578;2023-04-15T04:58:05;98911.03;;;5.21;67.20
47883;BME280;37739;50.350;7.578;2023-04-15T05:00:31;98909.41;;;5.23;67.05
47883;BME280;37739;50.350;7.578;2023-04-15T05:02:56;98914.44;;;5.21;67.60
47883;BME280;37739;50.350;7.578;2023-04-15T05:05:24;98907.63;;;5.20;67.02
47883;BME280;37739;50.350;7.578;2023-04-15T05:07:49;98911.84;;;5.20;66.81
47883;BME280;37739;50.350;7.578;2023-04-15T05:10:15;98909.22;;;5.18;67.23
47883;BME280;37739;50.350;7.578;2023-04-15T05:12:44;98910.25;;;5.22;67.52
47883;BME280;37739;50.350;7.578;2023-04-15T05:15:12;98912.19;;;5.27;66.76
47883;BME280;37739;50.350;7.578;2023-04-15T05:17:42;98920.00;;;5.32;66.58
47883;BME280;37739;50.350;7.578;2023-04-15T05:20:07;98925.41;;;5.40;66.08
47883;BME280;37739;50.350;7.578;2023-04-15T05:22:33;98917.94;;;5.43;66.61
47883;BME280;37739;50.350;7.578;2023-04-15T05:24:59;98918.91;;;5.46;66.28
47883;BME280;37739;50.350;7.578;2023-04-15T05:27:27;98923.34;;;5.50;66.48
47883;BME280;37739;50.350;7.578;2023-04-15T05:29:52;98929.22;;;5.49;66.46
47883;BME280;37739;50.350;7.578;2023-04-15T05:32:20;98931.69;;;5.48;66.27
47883;BME280;37739;50.350;7.578;2023-04-15T05:34:48;98927.56;;;5.50;66.36
47883;BME280;37739;50.350;7.578;2023-04-15T05:37:16;98936.25;;;5.55;66.57
47883;BME280;37739;50.350;7.578;2023-04-15T05:39:41;98935.25;;;5.51;66.73
47883;BME280;37739;50.350;7.578;2023-04-15T05:42:09;98936.78;;;5.48;67.25
47883;BME280;37739;50.350;7.578;2023-04-15T05:44:37;98941.63;;;5.42;68.36
47883;BME280;37739;50.350;7.578;2023-04-15T05:47:04;98942.97;;;5.53;66.88
47883;BME280;37739;50.350;7.578;2023-04-15T05:49:33;98941.59;;;5.61;66.35
47883;BME280;37739;50.350;7.578;2023-04-15T05:52:02;98942.59;;;5.65;66.06
47883;BME280;37739;50.350;7.578;2023-04-15T05:54:27;98943.53;;;5.67;66.74
47883;BME280;37739;50.350;7.578;2023-04-15T05:56:55;98952.44;;;5.77;67.65
47883;BME280;37739;50.350;7.578;2023-04-15T05:59:26;98955.38;;;5.86;67.22
47883;BME280;37739;50.350;7.578;2023-04-15T06:01:55;98955.50;;;5.89;67.58
47883;BME280;37739;50.350;7.578;2023-04-15T06:04:22;98959.81;;;5.70;68.97
47883;BME280;37739;50.350;7.578;2023-04-15T06:06:48;98968.56;;;5.77;69.18
47883;BME280;37739;50.350;7.578;2023-04-15T06:09:13;98967.84;;;5.80;69.24
47883;BME280;37739;50.350;7.578;2023-04-15T06:11:39;98969.56;;;5.81;69.19
47883;BME280;37739;50.350;7.578;2023-04-15T06:14:06;98981.53;;;5.62;68.74
47883;BME280;37739;50.350;7.578;2023-04-15T06:16:32;98983.06;;;5.59;69.50
47883;BME280;37739;50.350;7.578;2023-04-15T06:19:00;98984.34;;;5.68;68.56
47883;BME280;37739;50.350;7.578;2023-04-15T06:21:28;98985.16;;;5.88;68.42
47883;BME280;37739;50.350;7.578;2023-04-15T06:23:59;98988.28;;;6.01;68.14
47883;BME280;37739;50.350;7.578;2023-04-15T06:26:25;98986.78;;;6.06;67.90
47883;BME280;37739;50.350;7.578;2023-04-15T06:28:53;98988.78;;;6.13;66.81
47883;BME280;37739;50.350;7.578;2023-04-15T06:31:21;98988.66;;;6.31;66.78
47883;BME280;37739;50.350;7.578;2023-04-15T06:33:50;98985.88;;;6.46;66.10
47883;BME280;37739;50.350;7.578;2023-04-15T06:36:18;98981.59;;;6.66;65.35
47883;BME280;37739;50.350;7.578;2023-04-15T06:38:46;98983.78;;;6.79;65.14
47883;BME280;37739;50.350;7.578;2023-04-15T06:41:13;98981.66;;;6.90;65.19
47883;BME280;37739;50.350;7.578;2023-04-15T06:43:41;98987.75;;;6.94;64.94
47883;BME280;37739;50.350;7.578;2023-04-15T06:46:08;98980.25;;;6.98;64.31
47883;BME280;37739;50.350;7.578;2023-04-15T06:48:36;98981.16;;;6.99;64.94
47883;BME280;37739;50.350;7.578;2023-04-15T06:51:02;98989.19;;;7.10;64.77
47883;BME280;37739;50.350;7.578;2023-04-15T06:53:28;98981.81;;;7.17;64.86
47883;BME280;37739;50.350;7.578;2023-04-15T06:55:53;98977.47;;;6.92;65.66
47883;BME280;37739;50.350;7.578;2023-04-15T06:58:19;98977.19;;;7.07;65.28
47883;BME280;37739;50.350;7.578;2023-04-15T07:00:47;98970.34;;;7.28;64.45
47883;BME280;37739;50.350;7.578;2023-04-15T07:03:15;98978.56;;;7.44;64.32
47883;BME280;37739;50.350;7.578;2023-04-15T07:05:43;98981.66;;;7.59;63.92
47883;BME280;37739;50.350;7.578;2023-04-15T07:08:10;98978.88;;;7.77;63.40
47883;BME280;37739;50.350;7.578;2023-04-15T07:10:36;98972.44;;;7.89;62.99
47883;BME280;37739;50.350;7.578;2023-04-15T07:13:05;98978.72;;;7.97;62.36
47883;BME280;37739;50.350;7.578;2023-04-15T07:15:35;98977.34;;;8.06;62.37
47883;BME280;37739;50.350;7.578;2023-04-15T07:18:00;98975.06;;;8.16;62.18
47883;BME280;37739;50.350;7.578;2023-04-15T07:20:26;98982.78;;;8.17;62.10
47883;BME280;37739;50.350;7.578;2023-04-15T07:22:53;98975.44;;;8.26;62.24
47883;BME280;37739;50.350;7.578;2023-04-15T07:25:23;98988.16;;;8.25;62.30
47883;BME280;37739;50.350;7.578;2023-04-15T07:27:52;98978.84;;;8.27;62.78
47883;BME280;37739;50.350;7.578;2023-04-15T07:30:18;98978.97;;;8.30;62.76
47883;BME280;37739;50.350;7.578;2023-04-15T07:32:48;98984.22;;;8.35;61.92
47883;BME280;37739;50.350;7.578;2023-04-15T07:35:15;98994.38;;;8.33;61.47
47883;BME280;37739;50.350;7.578;2023-04-15T07:37:41;99003.91;;;8.37;61.38
47883;BME280;37739;50.350;7.578;2023-04-15T07:40:08;99002.75;;;8.53;61.85
47883;BME280;37739;50.350;7.578;2023-04-15T07:42:36;99003.66;;;8.55;62.38
47883;BME280;37739;50.350;7.578;2023-04-15T07:45:03;99001.41;;;8.64;61.31
47883;BME280;37739;50.350;7.578;2023-04-15T07:47:31;99003.22;;;8.69;61.62
47883;BME280;37739;50.350;7.578;2023-04-15T07:49:57;98999.81;;;8.68;61.34
47883;BME280;37739;50.350;7.578;2023-04-15T07:52:25;99001.16;;;8.57;61.75
47883;BME280;37739;50.350;7.578;2023-04-15T07:54:53;99002.63;;;8.50;61.75
47883;BME280;37739;50.350;7.578;2023-04-15T07:57:18;99009.13;;;8.66;62.22
47883;BME280;37739;50.350;7.578;2023-04-15T07:59:48;99005.25;;;8.79;61.90
47883;BME280;37739;50.350;7.578;2023-04-15T08:02:16;99006.47;;;8.90;62.16
47883;BME280;37739;50.350;7.578;2023-04-15T08:04:42;99002.72;;;9.08;61.52
47883;BME280;37739;50.350;7.578;2023-04-15T08:07:08;99011.63;;;9.20;61.87
47883;BME280;37739;50.350;7.578;2023-04-15T08:09:35;99007.44;;;9.22;61.78
47883;BME280;37739;50.350;7.578;2023-04-15T08:12:03;99008.25;;;9.21;62.14
47883;BME280;37739;50.350;7.578;2023-04-15T08:14:33;99011.44;;;9.43;62.13
47883;BME280;37739;50.350;7.578;2023-04-15T08:16:59;99013.81;;;9.67;61.37
47883;BME280;37739;50.350;7.578;2023-04-15T08:19:26;99012.63;;;9.86;60.58
47883;BME280;37739;50.350;7.578;2023-04-15T08:21:54;99009.66;;;10.02;59.95
47883;BME280;37739;50.350;7.578;2023-04-15T08:24:23;99016.63;;;10.07;59.24
47883;BME280;37739;50.350;7.578;2023-04-15T08:26:51;99014.25;;;10.16;59.88
47883;BME280;37739;50.350;7.578;2023-04-15T08:29:16;99020.06;;;10.40;59.01
47883;BME280;37739;50.350;7.578;2023-04-15T08:31:42;99010.31;;;10.62;58.45
47883;BME280;37739;50.350;7.578;2023-04-15T08:34:07;99018.31;;;10.74;57.80
47883;BME280;37739;50.350;7.578;2023-04-15T08:36:35;99013.72;;;10.97;57.48
47883;BME280;37739;50.350;7.578;2023-04-15T08:39:00;99010.91;;;10.87;57.46
47883;BME280;37739;50.350;7.578;2023-04-15T08:41:33;99016.16;;;10.91;57.72
47883;BME280;37739;50.350;7.578;2023-04-15T08:44:06;99017.97;;;10.97;57.44
47883;BME280;37739;50.350;7.578;2023-04-15T08:46:32;99014.72;;;11.04;57.29
47883;BME280;37739;50.350;7.578;2023-04-15T08:48:59;99012.16;;;11.04;57.19
47883;BME280;37739;50.350;7.578;2023-04-15T08:51:24;99019.16;;;11.11;56.95
47883;BME280;37739;50.350;7.578;2023-04-15T08:53:53;99022.59;;;11.12;57.23
47883;BME280;37739;50.350;7.578;2023-04-15T08:56:26;99017.97;;;10.95;57.59
47883;BME280;37739;50.350;7.578;2023-04-15T08:58:52;99019.34;;;11.19;57.52
47883;BME280;37739;50.350;7.578;2023-04-15T09:01:22;99023.91;;;11.32;57.26
47883;BME280;37739;50.350;7.578;2023-04-15T09:03:48;99023.47;;;11.52;56.74
47883;BME280;37739;50.350;7.578;2023-04-15T09:06:15;99022.91;;;11.67;56.47
47883;BME280;37739;50.350;7.578;2023-04-15T09:08:41;99026.31;;;11.66;55.98
47883;BME280;37739;50.350;7.578;2023-04-15T09:11:06;99029.81;;;11.69;56.36
47883;BME280;37739;50.350;7.578;2023-04-15T09:13:34;99036.91;;;11.83;56.28
47883;BME280;37739;50.350;7.578;2023-04-15T09:16:05;99034.59;;;11.95;55.82
47883;BME280;37739;50.350;7.578;2023-04-15T09:18:32;99036.78;;;12.19;54.92
47883;BME280;37739;50.350;7.578;2023-04-15T09:21:13;99045.88;;;12.47;54.29
47883;BME280;37739;50.350;7.578;2023-04-15T09:23:40;99045.88;;;12.47;52.56
47883;BME280;37739;50.350;7.578;2023-04-15T09:26:08;99045.84;;;12.46;52.69
47883;BME280;37739;50.350;7.578;2023-04-15T09:28:42;99049.56;;;12.63;52.45
47883;BME280;37739;50.350;7.578;2023-04-15T09:31:07;99058.13;;;12.64;52.36
47883;BME280;37739;50.350;7.578;2023-04-15T09:33:34;99046.44;;;12.83;52.43
47883;BME280;37739;50.350;7.578;2023-04-15T09:36:04;99047.38;;;12.89;51.09
47883;BME280;37739;50.350;7.578;2023-04-15T09:38:31;99054.34;;;12.95;48.79
47883;BME280;37739;50.350;7.578;2023-04-15T09:41:02;99043.38;;;13.07;48.46
47883;BME280;37739;50.350;7.578;2023-04-15T09:43:40;99040.81;;;13.07;46.69
47883;BME280;37739;50.350;7.578;2023-04-15T09:46:05;99041.66;;;13.07;47.34
47883;BME280;37739;50.350;7.578;2023-04-15T09:48:33;99039.47;;;13.33;46.74
47883;BME280;37739;50.350;7.578;2023-04-15T09:50:59;99048.31;;;13.52;45.82
47883;BME280;37739;50.350;7.578;2023-04-15T09:53:27;99053.75;;;13.72;45.87
47883;BME280;37739;50.350;7.578;2023-04-15T09:55:54;99047.84;;;13.83;44.70
47883;BME280;37739;50.350;7.578;2023-04-15T09:58:27;99053.91;;;13.86;44.49
47883;BME280;37739;50.350;7.578;2023-04-15T10:00:56;99049.03;;;14.14;43.69
47883;BME280;37739;50.350;7.578;2023-04-15T10:03:29;99054.41;;;14.32;41.89
47883;BME280;37739;50.350;7.578;2023-04-15T10:05:59;99055.47;;;14.54;43.08
47883;BME280;37739;50.350;7.578;2023-04-15T10:08:33;99054.03;;;14.84;41.26
47883;BME280;37739;50.350;7.578;2023-04-15T10:11:01;99060.88;;;14.79;39.91
47883;BME280;37739;50.350;7.578;2023-04-15T10:13:29;99060.75;;;14.65;40.06
47883;BME280;37739;50.350;7.578;2023-04-15T10:16:11;99051.06;;;14.43;39.05
47883;BME280;37739;50.350;7.578;2023-04-15T10:18:42;99058.72;;;14.35;40.79
47883;BME280;37739;50.350;7.578;2023-04-15T10:21:11;99061.28;;;14.33;40.59
47883;BME280;37739;50.350;7.578;2023-04-15T10:23:38;99058.75;;;14.37;39.64
47883;BME280;37739;50.350;7.578;2023-04-15T10:26:06;99067.25;;;14.26;40.49
47883;BME280;37739;50.350;7.578;2023-04-15T10:28:34;99057.91;;;14.39;41.76
47883;BME280;37739;50.350;7.578;2023-04-15T10:31:00;99055.56;;;14.62;41.62
47883;BME280;37739;50.350;7.578;2023-04-15T10:33:30;99060.84;;;14.78;40.38
47883;BME280;37739;50.350;7.578;2023-04-15T10:35:58;99064.41;;;14.90;40.46
47883;BME280;37739;50.350;7.578;2023-04-15T10:38:41;99055.81;;;14.91;40.44
47883;BME280;37739;50.350;7.578;2023-04-15T10:43:51;99061.81;;;14.90;39.16
47883;BME280;37739;50.350;7.578;2023-04-15T10:46:33;99060.94;;;14.88;38.48
47883;BME280;37739;50.350;7.578;2023-04-15T10:49:12;99061.81;;;14.89;38.63
47883;BME280;37739;50.350;7.578;2023-04-15T10:52:00;99066.81;;;14.69;39.38
47883;BME280;37739;50.350;7.578;2023-04-15T10:59:36;99066.78;;;14.66;36.53
47883;BME280;37739;50.350;7.578;2023-04-15T11:02:05;99072.81;;;14.68;36.84
47883;BME280;37739;50.350;7.578;2023-04-15T11:04:56;99080.78;;;14.97;37.12
47883;BME280;37739;50.350;7.578;2023-04-15T11:12:49;99084.84;;;14.63;38.49
47883;BME280;37739;50.350;7.578;2023-04-15T11:15:46;99090.94;;;14.72;38.99
47883;BME280;37739;50.350;7.578;2023-04-15T11:18:19;99092.31;;;14.38;39.74
47883;BME280;37739;50.350;7.578;2023-04-15T11:20:50;99097.56;;;14.47;40.08
47883;BME280;37739;50.350;7.578;2023-04-15T11:25:55;99101.84;;;14.48;40.38
47883;BME280;37739;50.350;7.578;2023-04-15T11:28:24;99116.50;;;14.48;41.03
47883;BME280;37739;50.350;7.578;2023-04-15T11:30:53;99109.41;;;14.31;40.68
47883;BME280;37739;50.350;7.578;2023-04-15T11:33:22;99105.06;;;14.24;41.32
47883;BME280;37739;50.350;7.578;2023-04-15T11:35:48;99110.91;;;14.12;42.36
47883;BME280;37739;50.350;7.578;2023-04-15T11:38:14;99117.91;;;14.21;42.46
47883;BME280;37739;50.350;7.578;2023-04-15T11:40:43;99122.28;;;14.27;42.99
47883;BME280;37739;50.350;7.578;2023-04-15T11:43:10;99123.09;;;14.23;43.07
47883;BME280;37739;50.350;7.578;2023-04-15T11:45:37;99132.31;;;14.02;43.66
47883;BME280;37739;50.350;7.578;2023-04-15T11:48:08;99133.16;;;14.01;43.33
47883;BME280;37739;50.350;7.578;2023-04-15T11:50:36;99140.81;;;13.95;43.75
47883;BME280;37739;50.350;7.578;2023-04-15T11:53:08;99144.34;;;14.05;43.65
47883;BME280;37739;50.350;7.578;2023-04-15T11:55:55;99148.72;;;14.07;43.82
47883;BME280;37739;50.350;7.578;2023-04-15T11:58:22;99151.16;;;13.98;44.10
47883;BME280;37739;50.350;7.578;2023-04-15T12:00:53;99149.16;;;13.77;44.07
47883;BME280;37739;50.350;7.578;2023-04-15T12:03:26;99150.34;;;14.02;44.33
47883;BME280;37739;50.350;7.578;2023-04-15T12:06:24;99154.16;;;14.32;43.66
47883;BME280;37739;50.350;7.578;2023-04-15T12:13:56;99167.72;;;14.90;43.48
47883;BME280;37739;50.350;7.578;2023-04-15T12:16:26;99169.63;;;15.11;43.20
47883;BME280;37739;50.350;7.578;2023-04-15T12:18:54;99173.91;;;15.09;43.69
47883;BME280;37739;50.350;7.578;2023-04-15T12:21:26;99189.78;;;14.59;44.46
47883;BME280;37739;50.350;7.578;2023-04-15T12:23:53;99186.16;;;14.48;45.10
47883;BME280;37739;50.350;7.578;2023-04-15T12:26:48;99180.56;;;14.12;45.72
47883;BME280;37739;50.350;7.578;2023-04-15T12:29:15;99200.00;;;13.86;46.80
47883;BME280;37739;50.350;7.578;2023-04-15T12:32:19;99200.66;;;13.71;47.72
47883;BME280;37739;50.350;7.578;2023-04-15T12:34:52;99198.06;;;13.71;48.72
47883;BME280;37739;50.350;7.578;2023-04-15T12:37:18;99211.19;;;13.31;48.82
47883;BME280;37739;50.350;7.578;2023-04-15T12:39:47;99220.53;;;13.26;48.88
47883;BME280;37739;50.350;7.578;2023-04-15T12:42:14;99229.09;;;13.25;49.22
47883;BME280;37739;50.350;7.578;2023-04-15T12:44:40;99228.59;;;12.96;50.16
47883;BME280;37739;50.350;7.578;2023-04-15T12:47:08;99231.13;;;12.94;50.68
47883;BME280;37739;50.350;7.578;2023-04-15T12:49:39;99237.09;;;12.92;50.75
47883;BME280;37739;50.350;7.578;2023-04-15T12:52:05;99243.03;;;12.89;50.97
47883;BME280;37739;50.350;7.578;2023-04-15T12:54:31;99241.88;;;12.73;51.79
47883;BME280;37739;50.350;7.578;2023-04-15T12:57:00;99253.97;;;12.77;52.34
47883;BME280;37739;50.350;7.578;2023-04-15T12:59:25;99257.22;;;12.67;52.52
47883;BME280;37739;50.350;7.578;2023-04-15T13:01:52;99255.53;;;12.69;52.73
47883;BME280;37739;50.350;7.578;2023-04-15T13:04:20;99257.44;;;12.78;52.75
47883;BME280;37739;50.350;7.578;2023-04-15T13:06:46;99260.78;;;12.75;52.90
47883;BME280;37739;50.350;7.578;2023-04-15T13:09:13;99259.97;;;12.76;52.92
47883;BME280;37739;50.350;7.578;2023-04-15T13:11:41;99269.97;;;12.61;54.06
47883;BME280;37739;50.350;7.578;2023-04-15T13:14:07;99279.41;;;12.61;54.47
47883;BME280;37739;50.350;7.578;2023-04-15T13:16:33;99274.16;;;12.57;55.30
47883;BME280;37739;50.350;7.578;2023-04-15T13:19:02;99276.97;;;12.68;55.48
47883;BME280;37739;50.350;7.578;2023-04-15T13:21:32;99286.31;;;12.63;56.02
47883;BME280;37739;50.350;7.578;2023-04-15T13:24:00;99284.22;;;12.47;57.16
47883;BME280;37739;50.350;7.578;2023-04-15T13:26:30;99287.44;;;12.36;57.92
47883;BME280;37739;50.350;7.578;2023-04-15T13:28:55;99298.47;;;12.31;58.44
47883;BME280;37739;50.350;7.578;2023-04-15T13:31:21;99316.84;;;12.10;58.37